Glasgow, United Kingdom

8:11 AM BST on July 08, 2015 (GMT +0100)
Glasgow | | Change Station
CLOSE
Current Station
Airport
Location: Glasgow,
Elevation: 26 ft
Nearby Weather Stations

Elev 26 ft 55.87 °N, 4.43 °W | Updated 21 minutes ago

Light Rain
Light Rain Drizzle
54 °F
Feels Like 54 °F
N
2
Wind Variable Wind from Variable

Today
High -- | Low -- °F
--% Chance of Precip.
Yesterday
High -- | Low -- °F
Precip. -- in
4:43 AM 10:01 PM
Waning Gibbous, 56% visible
Pressure 29.71 in
Visibility 3.7 miles
Clouds Scattered Clouds 800 ft
Mostly Cloudy 2200 ft
Dew Point 52 °F
Humidity 94%
Rainfall 0.00 in
Snow Depth Not available.
UV 1 out of 12
Pollen Not available.
Air Quality Not available.
Flu Activity Not available.
METAR EGPF 080650Z VRB02KT 6000 -RADZ SCT008 BKN022 12/11 Q1006

More Conditions Fewer Conditions

Pressure 29.71 in
Visibility 3.7 miles
Clouds Scattered Clouds 800 ft
Mostly Cloudy 2200 ft
Dew Point 52 °F
Humidity 94%
Rainfall 0.00 in
Snow Depth Not available.
UV 1 out of 12
Pollen Not available.
Air Quality Not available.
Flu Activity Not available.
METAR EGPF 080650Z VRB02KT 6000 -RADZ SCT008 BKN022 12/11 Q1006

More Conditions Fewer Conditions

10-Day Weather Forecast

×

Almanac

Astronomy

Jul. 08, 2015 Rise Set
Actual Time
Civil Twilight
Nautical Twilight
Astronomical Twilight
Moon
Length of Visible Light
Length of Day
Tomorrow will be .
, % of the Moon is Illuminated

Today's Extremes

Country Highs Country Lows

Community

WunderPhotos

Upload Photos

1,836,064 photos uploaded!

WunderBlogs® & News

Nearby

Air Quality

  Air Quality AQ Index Pollutant
Not available.

Snow Depth

Station Depth Elevation

Earthquake Activity

City Distance Mag. Time & Date
Minimum magnitude displayed is 2.5.

Coastal Water Temperatures

Place Temperature

Stations

Nearby Weather Stations

Station Location Temp. Windchill Dew Point Humidity Wind Precip. Elev Updated Type